Google Maps JavaScript API Example
Pilot Flight Report # 92783 Submitted by : AST003 on 2019-03-18
Date: 2019-03-18Aircraft: DeHavilland DHC6 Twin Otter - Wheeled
Flight No.: Not AvailableDistance (Nm): 139.84
Departure: YKII - King IDestination: YMML - Melbourne International
 TimeFuelWeightSpeeds  
Out (Taxi)0320Z1447 lbs10233 lbs Flight RulesIFR
Off (Takeoff)0322Z 10228 lbs84 ktsFlight Level9500
On (Landing)0418Z 9499 lbs56 ktsVSTD-72 ft/min
In (Ramp)0418Z717 lbs9498 lbs ZFW8783 lbs
Flight0.90  -  0:56730 lbs  Pax0
Block0.97  -  0:58730 lbs  Cargo0
Departure WeatherYKII 170319Z 18307KT 37SM BKN095 16/11 A2987
Destination WeatherYMML 170418Z 22807KT 32SM -RA SCT019 SCT020 17/15 A2988
Flight Comments